sensor_id;sensor_type;location;lat;lon;timestamp;temperature;humidity
3488;DHT22;38546;48.170;11.724;2022-08-19T00:02:33;18.70;99.90
3488;DHT22;38546;48.170;11.724;2022-08-19T00:05:23;18.80;99.90
3488;DHT22;38546;48.170;11.724;2022-08-19T00:08:12;18.90;99.90
3488;DHT22;38546;48.170;11.724;2022-08-19T00:11:02;18.90;99.90
3488;DHT22;38546;48.170;11.724;2022-08-19T00:13:52;19.20;99.90
3488;DHT22;38546;48.170;11.724;2022-08-19T00:16:43;19.10;99.90
3488;DHT22;38546;48.170;11.724;2022-08-19T00:19:35;19.00;99.90
3488;DHT22;38546;48.170;11.724;2022-08-19T00:22:25;19.10;99.90
3488;DHT22;38546;48.170;11.724;2022-08-19T00:25:17;19.00;99.90
3488;DHT22;38546;48.170;11.724;2022-08-19T00:28:07;18.90;99.90
3488;DHT22;38546;48.170;11.724;2022-08-19T00:30:56;18.90;99.90
3488;DHT22;38546;48.170;11.724;2022-08-19T00:33:45;18.90;99.90
3488;DHT22;38546;48.170;11.724;2022-08-19T00:36:35;18.90;99.90
3488;DHT22;38546;48.170;11.724;2022-08-19T00:39:25;19.00;99.90
3488;DHT22;38546;48.170;11.724;2022-08-19T00:42:14;18.80;99.90
3488;DHT22;38546;48.170;11.724;2022-08-19T00:45:11;18.90;99.90
3488;DHT22;38546;48.170;11.724;2022-08-19T00:48:04;18.90;99.90
3488;DHT22;38546;48.170;11.724;2022-08-19T00:50:54;18.80;99.90
3488;DHT22;38546;48.170;11.724;2022-08-19T00:53:44;18.90;99.90
3488;DHT22;38546;48.170;11.724;2022-08-19T00:56:33;18.90;99.90
3488;DHT22;38546;48.170;11.724;2022-08-19T00:59:23;18.80;99.90
3488;DHT22;38546;48.170;11.724;2022-08-19T01:02:15;18.80;99.90
3488;DHT22;38546;48.170;11.724;2022-08-19T01:05:09;18.70;99.90
3488;DHT22;38546;48.170;11.724;2022-08-19T01:08:02;19.00;99.90
3488;DHT22;38546;48.170;11.724;2022-08-19T01:10:55;19.00;99.90
3488;DHT22;38546;48.170;11.724;2022-08-19T01:13:46;19.00;99.90
3488;DHT22;38546;48.170;11.724;2022-08-19T01:16:37;18.90;99.90
3488;DHT22;38546;48.170;11.724;2022-08-19T01:19:37;18.80;99.90
3488;DHT22;38546;48.170;11.724;2022-08-19T01:22:36;18.70;99.90
3488;DHT22;38546;48.170;11.724;2022-08-19T01:25:42;18.80;99.90
3488;DHT22;38546;48.170;11.724;2022-08-19T01:28:40;18.70;99.90
3488;DHT22;38546;48.170;11.724;2022-08-19T01:31:30;18.70;99.90
3488;DHT22;38546;48.170;11.724;2022-08-19T01:34:19;18.70;99.90
3488;DHT22;38546;48.170;11.724;2022-08-19T01:37:11;18.60;99.90
3488;DHT22;38546;48.170;11.724;2022-08-19T01:40:00;18.60;99.90
3488;DHT22;38546;48.170;11.724;2022-08-19T01:42:51;18.50;99.90
3488;DHT22;38546;48.170;11.724;2022-08-19T01:45:41;18.60;99.90
3488;DHT22;38546;48.170;11.724;2022-08-19T01:48:40;18.60;99.90
3488;DHT22;38546;48.170;11.724;2022-08-19T01:51:30;18.60;99.90
3488;DHT22;38546;48.170;11.724;2022-08-19T01:54:21;18.70;99.90
3488;DHT22;38546;48.170;11.724;2022-08-19T01:57:13;18.80;99.90
3488;DHT22;38546;48.170;11.724;2022-08-19T02:00:06;18.90;99.90
3488;DHT22;38546;48.170;11.724;2022-08-19T02:02:58;18.90;99.90
3488;DHT22;38546;48.170;11.724;2022-08-19T02:05:47;19.00;99.90
3488;DHT22;38546;48.170;11.724;2022-08-19T02:08:38;19.10;99.90
3488;DHT22;38546;48.170;11.724;2022-08-19T02:11:32;19.00;99.90
3488;DHT22;38546;48.170;11.724;2022-08-19T02:14:21;19.00;99.90
3488;DHT22;38546;48.170;11.724;2022-08-19T02:17:11;18.90;99.90
3488;DHT22;38546;48.170;11.724;2022-08-19T02:20:01;18.90;99.90
3488;DHT22;38546;48.170;11.724;2022-08-19T02:22:51;19.10;99.90
3488;DHT22;38546;48.170;11.724;2022-08-19T02:25:46;19.00;99.90
3488;DHT22;38546;48.170;11.724;2022-08-19T02:28:37;19.00;99.90
3488;DHT22;38546;48.170;11.724;2022-08-19T02:31:26;19.10;99.90
3488;DHT22;38546;48.170;11.724;2022-08-19T02:34:17;18.90;99.90
3488;DHT22;38546;48.170;11.724;2022-08-19T02:37:06;19.10;99.90
3488;DHT22;38546;48.170;11.724;2022-08-19T02:41:19;19.20;99.90
3488;DHT22;38546;48.170;11.724;2022-08-19T02:44:10;19.10;99.90
3488;DHT22;38546;48.170;11.724;2022-08-19T02:46:59;19.10;99.90
3488;DHT22;38546;48.170;11.724;2022-08-19T02:49:48;19.10;99.90
3488;DHT22;38546;48.170;11.724;2022-08-19T02:52:41;19.00;99.90
3488;DHT22;38546;48.170;11.724;2022-08-19T02:55:30;19.10;99.90
3488;DHT22;38546;48.170;11.724;2022-08-19T02:58:20;19.00;99.90
3488;DHT22;38546;48.170;11.724;2022-08-19T03:01:11;19.00;99.90
3488;DHT22;38546;48.170;11.724;2022-08-19T03:04:14;19.00;99.90
3488;DHT22;38546;48.170;11.724;2022-08-19T03:07:04;19.00;99.90
3488;DHT22;38546;48.170;11.724;2022-08-19T03:09:53;19.00;99.90
3488;DHT22;38546;48.170;11.724;2022-08-19T03:12:42;19.10;99.90
3488;DHT22;38546;48.170;11.724;2022-08-19T03:15:31;19.00;99.90
3488;DHT22;38546;48.170;11.724;2022-08-19T03:18:20;19.00;99.90
3488;DHT22;38546;48.170;11.724;2022-08-19T03:21:15;19.00;99.90
3488;DHT22;38546;48.170;11.724;2022-08-19T03:24:08;19.00;99.90
3488;DHT22;38546;48.170;11.724;2022-08-19T03:26:58;19.00;99.90
3488;DHT22;38546;48.170;11.724;2022-08-19T03:29:47;18.90;99.90
3488;DHT22;38546;48.170;11.724;2022-08-19T03:32:37;18.90;99.90
3488;DHT22;38546;48.170;11.724;2022-08-19T03:35:26;19.00;99.90
3488;DHT22;38546;48.170;11.724;2022-08-19T03:38:16;18.90;99.90
3488;DHT22;38546;48.170;11.724;2022-08-19T03:41:07;18.80;99.90
3488;DHT22;38546;48.170;11.724;2022-08-19T03:44:00;18.80;99.90
3488;DHT22;38546;48.170;11.724;2022-08-19T03:46:52;19.00;99.90
3488;DHT22;38546;48.170;11.724;2022-08-19T03:49:44;19.00;99.90
3488;DHT22;38546;48.170;11.724;2022-08-19T03:52:33;19.00;99.90
3488;DHT22;38546;48.170;11.724;2022-08-19T03:55:22;19.00;99.90
3488;DHT22;38546;48.170;11.724;2022-08-19T03:58:12;19.00;99.90
3488;DHT22;38546;48.170;11.724;2022-08-19T04:01:01;18.80;99.90
3488;DHT22;38546;48.170;11.724;2022-08-19T04:03:50;19.00;99.90
3488;DHT22;38546;48.170;11.724;2022-08-19T04:06:39;18.90;99.90
3488;DHT22;38546;48.170;11.724;2022-08-19T04:09:29;18.80;99.90
3488;DHT22;38546;48.170;11.724;2022-08-19T04:12:18;18.80;99.90
3488;DHT22;38546;48.170;11.724;2022-08-19T04:15:10;18.80;99.90
3488;DHT22;38546;48.170;11.724;2022-08-19T04:17:59;18.80;99.90
3488;DHT22;38546;48.170;11.724;2022-08-19T04:20:48;18.80;99.90
3488;DHT22;38546;48.170;11.724;2022-08-19T04:23:39;18.90;99.90
3488;DHT22;38546;48.170;11.724;2022-08-19T04:26:30;18.90;99.90
3488;DHT22;38546;48.170;11.724;2022-08-19T04:29:24;18.90;99.90
3488;DHT22;38546;48.170;11.724;2022-08-19T04:32:15;18.80;99.90
3488;DHT22;38546;48.170;11.724;2022-08-19T04:35:05;18.90;99.90
3488;DHT22;38546;48.170;11.724;2022-08-19T04:37:55;18.80;99.90
3488;DHT22;38546;48.170;11.724;2022-08-19T04:40:47;18.80;99.90
3488;DHT22;38546;48.170;11.724;2022-08-19T04:43:56;18.90;99.90
3488;DHT22;38546;48.170;11.724;2022-08-19T04:46:47;18.90;99.90
3488;DHT22;38546;48.170;11.724;2022-08-19T04:49:38;18.90;99.90
3488;DHT22;38546;48.170;11.724;2022-08-19T04:52:27;19.10;99.90
3488;DHT22;38546;48.170;11.724;2022-08-19T04:55:17;19.20;99.90
3488;DHT22;38546;48.170;11.724;2022-08-19T04:58:07;19.10;99.90
3488;DHT22;38546;48.170;11.724;2022-08-19T05:00:56;19.00;99.90
3488;DHT22;38546;48.170;11.724;2022-08-19T05:03:45;19.10;99.90
3488;DHT22;38546;48.170;11.724;2022-08-19T05:06:35;19.00;99.90
3488;DHT22;38546;48.170;11.724;2022-08-19T05:09:26;19.00;99.90
3488;DHT22;38546;48.170;11.724;2022-08-19T05:12:15;19.00;99.90
3488;DHT22;38546;48.170;11.724;2022-08-19T05:15:07;19.10;99.90
3488;DHT22;38546;48.170;11.724;2022-08-19T05:17:57;19.20;99.90
3488;DHT22;38546;48.170;11.724;2022-08-19T05:21:14;19.20;99.90
3488;DHT22;38546;48.170;11.724;2022-08-19T05:26:45;19.20;99.90
3488;DHT22;38546;48.170;11.724;2022-08-19T05:29:36;19.20;99.90
3488;DHT22;38546;48.170;11.724;2022-08-19T05:32:25;19.20;99.90
3488;DHT22;38546;48.170;11.724;2022-08-19T05:35:14;19.20;99.90
3488;DHT22;38546;48.170;11.724;2022-08-19T05:38:03;19.20;99.90
3488;DHT22;38546;48.170;11.724;2022-08-19T05:40:52;19.20;99.90
3488;DHT22;38546;48.170;11.724;2022-08-19T05:43:41;19.20;99.90
3488;DHT22;38546;48.170;11.724;2022-08-19T05:46:30;19.30;99.90
3488;DHT22;38546;48.170;11.724;2022-08-19T05:49:21;19.20;99.90
3488;DHT22;38546;48.170;11.724;2022-08-19T05:52:13;19.20;99.90
3488;DHT22;38546;48.170;11.724;2022-08-19T05:55:05;19.30;99.90
3488;DHT22;38546;48.170;11.724;2022-08-19T05:57:55;19.20;99.90
3488;DHT22;38546;48.170;11.724;2022-08-19T06:00:44;19.20;99.90
3488;DHT22;38546;48.170;11.724;2022-08-19T06:03:35;19.20;99.90
3488;DHT22;38546;48.170;11.724;2022-08-19T06:06:26;19.20;99.90
3488;DHT22;38546;48.170;11.724;2022-08-19T06:09:15;19.20;99.90
3488;DHT22;38546;48.170;11.724;2022-08-19T06:12:05;19.10;99.90
3488;DHT22;38546;48.170;11.724;2022-08-19T06:14:55;19.00;99.90
3488;DHT22;38546;48.170;11.724;2022-08-19T06:17:44;19.00;99.90
3488;DHT22;38546;48.170;11.724;2022-08-19T06:20:34;19.00;99.90
3488;DHT22;38546;48.170;11.724;2022-08-19T06:23:23;18.90;99.90
3488;DHT22;38546;48.170;11.724;2022-08-19T06:26:13;18.90;99.90
3488;DHT22;38546;48.170;11.724;2022-08-19T06:29:05;18.80;99.90
3488;DHT22;38546;48.170;11.724;2022-08-19T06:31:58;18.80;99.90
3488;DHT22;38546;48.170;11.724;2022-08-19T06:34:48;18.80;99.90
3488;DHT22;38546;48.170;11.724;2022-08-19T06:37:37;18.70;99.90
3488;DHT22;38546;48.170;11.724;2022-08-19T06:40:26;18.80;99.90
3488;DHT22;38546;48.170;11.724;2022-08-19T06:43:16;18.80;99.90
3488;DHT22;38546;48.170;11.724;2022-08-19T06:46:10;18.80;99.90
3488;DHT22;38546;48.170;11.724;2022-08-19T06:49:00;18.70;99.90
3488;DHT22;38546;48.170;11.724;2022-08-19T06:51:50;18.70;99.90
3488;DHT22;38546;48.170;11.724;2022-08-19T06:54:40;18.70;99.90
3488;DHT22;38546;48.170;11.724;2022-08-19T06:57:31;18.70;99.90
3488;DHT22;38546;48.170;11.724;2022-08-19T07:00:21;18.70;99.90
3488;DHT22;38546;48.170;11.724;2022-08-19T07:03:10;18.70;99.90
3488;DHT22;38546;48.170;11.724;2022-08-19T07:06:20;18.80;99.90
3488;DHT22;38546;48.170;11.724;2022-08-19T07:09:11;18.70;99.90
3488;DHT22;38546;48.170;11.724;2022-08-19T07:12:02;18.70;99.90
3488;DHT22;38546;48.170;11.724;2022-08-19T07:14:52;18.70;99.90
3488;DHT22;38546;48.170;11.724;2022-08-19T07:17:42;18.80;99.90
3488;DHT22;38546;48.170;11.724;2022-08-19T07:20:32;19.00;99.90
3488;DHT22;38546;48.170;11.724;2022-08-19T07:23:21;19.00;99.90
3488;DHT22;38546;48.170;11.724;2022-08-19T07:26:20;19.00;99.90
3488;DHT22;38546;48.170;11.724;2022-08-19T07:29:11;19.00;99.90
3488;DHT22;38546;48.170;11.724;2022-08-19T07:32:03;19.00;99.90
3488;DHT22;38546;48.170;11.724;2022-08-19T07:34:54;19.10;99.90
3488;DHT22;38546;48.170;11.724;2022-08-19T07:37:43;19.10;99.90
3488;DHT22;38546;48.170;11.724;2022-08-19T07:40:33;19.10;99.90
3488;DHT22;38546;48.170;11.724;2022-08-19T07:43:22;19.20;99.90
3488;DHT22;38546;48.170;11.724;2022-08-19T07:46:14;19.30;99.90
3488;DHT22;38546;48.170;11.724;2022-08-19T07:49:04;19.30;99.90
3488;DHT22;38546;48.170;11.724;2022-08-19T07:51:58;19.40;99.90
3488;DHT22;38546;48.170;11.724;2022-08-19T07:54:50;19.40;99.90
3488;DHT22;38546;48.170;11.724;2022-08-19T07:57:40;19.40;99.90
3488;DHT22;38546;48.170;11.724;2022-08-19T08:00:29;19.40;99.90
3488;DHT22;38546;48.170;11.724;2022-08-19T08:03:21;19.30;99.90
3488;DHT22;38546;48.170;11.724;2022-08-19T08:12:05;19.30;99.90
3488;DHT22;38546;48.170;11.724;2022-08-19T08:15:05;19.40;99.90
3488;DHT22;38546;48.170;11.724;2022-08-19T08:17:56;19.40;99.90
3488;DHT22;38546;48.170;11.724;2022-08-19T08:20:46;19.50;99.90
3488;DHT22;38546;48.170;11.724;2022-08-19T08:23:36;19.50;99.90
3488;DHT22;38546;48.170;11.724;2022-08-19T08:26:25;19.60;99.90
3488;DHT22;38546;48.170;11.724;2022-08-19T08:29:15;19.50;99.90
3488;DHT22;38546;48.170;11.724;2022-08-19T08:32:05;19.50;99.90
3488;DHT22;38546;48.170;11.724;2022-08-19T08:34:54;19.50;99.90
3488;DHT22;38546;48.170;11.724;2022-08-19T08:37:44;19.50;99.90
3488;DHT22;38546;48.170;11.724;2022-08-19T08:40:47;19.60;99.90
3488;DHT22;38546;48.170;11.724;2022-08-19T08:43:40;19.40;99.90
3488;DHT22;38546;48.170;11.724;2022-08-19T08:46:41;19.50;99.90
3488;DHT22;38546;48.170;11.724;2022-08-19T08:50:01;19.50;99.90
3488;DHT22;38546;48.170;11.724;2022-08-19T08:52:57;19.40;99.90
3488;DHT22;38546;48.170;11.724;2022-08-19T08:55:47;19.60;99.90
3488;DHT22;38546;48.170;11.724;2022-08-19T08:58:46;19.40;99.90
3488;DHT22;38546;48.170;11.724;2022-08-19T09:01:40;19.40;99.90
3488;DHT22;38546;48.170;11.724;2022-08-19T09:04:29;19.40;99.90
3488;DHT22;38546;48.170;11.724;2022-08-19T09:07:50;19.20;99.90
3488;DHT22;38546;48.170;11.724;2022-08-19T09:10:55;19.20;99.90
3488;DHT22;38546;48.170;11.724;2022-08-19T09:14:11;19.10;99.90
3488;DHT22;38546;48.170;11.724;2022-08-19T09:17:31;19.10;99.90
3488;DHT22;38546;48.170;11.724;2022-08-19T09:20:23;19.10;99.90
3488;DHT22;38546;48.170;11.724;2022-08-19T09:23:13;19.10;99.90
3488;DHT22;38546;48.170;11.724;2022-08-19T09:26:11;19.10;99.90
3488;DHT22;38546;48.170;11.724;2022-08-19T09:29:02;19.10;99.90
3488;DHT22;38546;48.170;11.724;2022-08-19T09:31:54;19.00;99.90
3488;DHT22;38546;48.170;11.724;2022-08-19T09:34:44;19.00;99.90
3488;DHT22;38546;48.170;11.724;2022-08-19T09:37:34;19.20;99.90
3488;DHT22;38546;48.170;11.724;2022-08-19T09:40:25;19.10;99.90
3488;DHT22;38546;48.170;11.724;2022-08-19T09:43:15;19.10;99.90
3488;DHT22;38546;48.170;11.724;2022-08-19T09:46:05;19.20;99.90
3488;DHT22;38546;48.170;11.724;2022-08-19T09:48:58;19.20;99.90
3488;DHT22;38546;48.170;11.724;2022-08-19T09:51:52;19.30;99.90
3488;DHT22;38546;48.170;11.724;2022-08-19T09:54:45;19.40;99.90
3488;DHT22;38546;48.170;11.724;2022-08-19T09:57:35;19.60;99.90
3488;DHT22;38546;48.170;11.724;2022-08-19T10:00:25;19.70;99.90
3488;DHT22;38546;48.170;11.724;2022-08-19T10:03:15;19.90;99.90
3488;DHT22;38546;48.170;11.724;2022-08-19T10:06:05;20.10;99.90
3488;DHT22;38546;48.170;11.724;2022-08-19T10:08:54;20.20;99.90
3488;DHT22;38546;48.170;11.724;2022-08-19T10:11:45;20.20;99.90
3488;DHT22;38546;48.170;11.724;2022-08-19T10:14:37;20.30;99.90
3488;DHT22;38546;48.170;11.724;2022-08-19T10:17:26;20.30;99.90
3488;DHT22;38546;48.170;11.724;2022-08-19T10:20:16;20.50;99.90
3488;DHT22;38546;48.170;11.724;2022-08-19T10:23:05;20.50;99.90
3488;DHT22;38546;48.170;11.724;2022-08-19T10:25:55;20.70;99.90
3488;DHT22;38546;48.170;11.724;2022-08-19T10:28:49;20.60;99.90
3488;DHT22;38546;48.170;11.724;2022-08-19T10:31:38;20.80;99.90
3488;DHT22;38546;48.170;11.724;2022-08-19T10:34:30;21.00;99.90
3488;DHT22;38546;48.170;11.724;2022-08-19T10:37:19;21.20;99.90
3488;DHT22;38546;48.170;11.724;2022-08-19T10:40:09;21.40;99.90
3488;DHT22;38546;48.170;11.724;2022-08-19T10:43:00;21.50;99.90
3488;DHT22;38546;48.170;11.724;2022-08-19T10:45:53;21.70;99.90
3488;DHT22;38546;48.170;11.724;2022-08-19T10:48:45;21.80;99.90
3488;DHT22;38546;48.170;11.724;2022-08-19T10:51:35;22.00;99.90
3488;DHT22;38546;48.170;11.724;2022-08-19T10:54:43;21.90;99.90
3488;DHT22;38546;48.170;11.724;2022-08-19T10:57:52;21.80;99.90
3488;DHT22;38546;48.170;11.724;2022-08-19T11:00:43;21.80;99.90
3488;DHT22;38546;48.170;11.724;2022-08-19T11:03:32;21.60;99.90
3488;DHT22;38546;48.170;11.724;2022-08-19T11:06:22;21.90;99.90
3488;DHT22;38546;48.170;11.724;2022-08-19T11:09:20;22.00;99.90
3488;DHT22;38546;48.170;11.724;2022-08-19T11:12:16;22.30;99.90
3488;DHT22;38546;48.170;11.724;2022-08-19T11:15:08;22.20;99.90
3488;DHT22;38546;48.170;11.724;2022-08-19T11:18:00;22.10;99.90
3488;DHT22;38546;48.170;11.724;2022-08-19T11:20:49;22.40;99.90
3488;DHT22;38546;48.170;11.724;2022-08-19T11:23:39;23.00;99.90
3488;DHT22;38546;48.170;11.724;2022-08-19T11:26:30;23.10;99.90
3488;DHT22;38546;48.170;11.724;2022-08-19T11:29:20;23.30;99.90
3488;DHT22;38546;48.170;11.724;2022-08-19T11:32:10;23.20;99.90
3488;DHT22;38546;48.170;11.724;2022-08-19T11:34:59;23.50;99.90
3488;DHT22;38546;48.170;11.724;2022-08-19T11:37:48;23.50;99.90
3488;DHT22;38546;48.170;11.724;2022-08-19T11:40:38;23.10;99.90
3488;DHT22;38546;48.170;11.724;2022-08-19T11:43:28;23.00;99.90
3488;DHT22;38546;48.170;11.724;2022-08-19T11:46:17;23.00;99.90
3488;DHT22;38546;48.170;11.724;2022-08-19T11:49:07;23.00;99.90
3488;DHT22;38546;48.170;11.724;2022-08-19T11:51:58;23.40;99.90
3488;DHT22;38546;48.170;11.724;2022-08-19T11:54:47;23.90;99.90
3488;DHT22;38546;48.170;11.724;2022-08-19T11:57:37;23.90;99.90
3488;DHT22;38546;48.170;11.724;2022-08-19T12:00:27;24.00;99.90
3488;DHT22;38546;48.170;11.724;2022-08-19T12:03:16;23.60;99.90
3488;DHT22;38546;48.170;11.724;2022-08-19T12:06:12;23.60;99.90
3488;DHT22;38546;48.170;11.724;2022-08-19T12:09:06;23.70;99.90
3488;DHT22;38546;48.170;11.724;2022-08-19T12:11:57;23.90;99.90
3488;DHT22;38546;48.170;11.724;2022-08-19T12:14:46;23.90;99.90
3488;DHT22;38546;48.170;11.724;2022-08-19T12:17:36;24.10;99.90
3488;DHT22;38546;48.170;11.724;2022-08-19T12:20:25;23.60;99.90
3488;DHT22;38546;48.170;11.724;2022-08-19T12:23:15;23.20;99.90
3488;DHT22;38546;48.170;11.724;2022-08-19T12:26:04;23.00;99.90
3488;DHT22;38546;48.170;11.724;2022-08-19T12:28:53;23.10;99.90
3488;DHT22;38546;48.170;11.724;2022-08-19T12:31:43;23.00;99.90
3488;DHT22;38546;48.170;11.724;2022-08-19T12:34:33;22.90;99.90
3488;DHT22;38546;48.170;11.724;2022-08-19T12:37:22;23.10;99.90
3488;DHT22;38546;48.170;11.724;2022-08-19T12:40:12;23.00;99.90
3488;DHT22;38546;48.170;11.724;2022-08-19T12:43:02;23.00;99.90
3488;DHT22;38546;48.170;11.724;2022-08-19T12:45:51;23.00;99.90
3488;DHT22;38546;48.170;11.724;2022-08-19T12:48:40;23.00;99.90
3488;DHT22;38546;48.170;11.724;2022-08-19T12:51:33;23.00;99.90
3488;DHT22;38546;48.170;11.724;2022-08-19T12:54:23;23.20;99.90
3488;DHT22;38546;48.170;11.724;2022-08-19T12:57:12;23.30;99.90
3488;DHT22;38546;48.170;11.724;2022-08-19T13:00:13;23.40;99.90
3488;DHT22;38546;48.170;11.724;2022-08-19T13:03:06;23.60;99.90
3488;DHT22;38546;48.170;11.724;2022-08-19T13:05:56;23.80;99.90
3488;DHT22;38546;48.170;11.724;2022-08-19T13:08:45;23.70;99.90
3488;DHT22;38546;48.170;11.724;2022-08-19T13:11:34;23.50;99.90
3488;DHT22;38546;48.170;11.724;2022-08-19T13:14:25;23.60;99.90
3488;DHT22;38546;48.170;11.724;2022-08-19T13:17:14;23.60;99.90
3488;DHT22;38546;48.170;11.724;2022-08-19T13:20:09;23.50;99.90
3488;DHT22;38546;48.170;11.724;2022-08-19T13:23:00;23.60;99.90
3488;DHT22;38546;48.170;11.724;2022-08-19T13:25:56;23.50;99.90
3488;DHT22;38546;48.170;11.724;2022-08-19T13:28:46;23.20;99.90
3488;DHT22;38546;48.170;11.724;2022-08-19T13:31:54;23.10;99.90
3488;DHT22;38546;48.170;11.724;2022-08-19T13:35:03;22.90;99.90
3488;DHT22;38546;48.170;11.724;2022-08-19T13:37:53;22.90;99.90
3488;DHT22;38546;48.170;11.724;2022-08-19T13:40:43;23.10;99.90
3488;DHT22;38546;48.170;11.724;2022-08-19T13:43:33;23.20;99.90
3488;DHT22;38546;48.170;11.724;2022-08-19T13:46:22;23.20;99.90
3488;DHT22;38546;48.170;11.724;2022-08-19T13:49:12;23.40;99.90
3488;DHT22;38546;48.170;11.724;2022-08-19T13:52:05;23.40;99.90
3488;DHT22;38546;48.170;11.724;2022-08-19T13:54:55;23.40;99.90
3488;DHT22;38546;48.170;11.724;2022-08-19T13:57:46;23.20;99.90
3488;DHT22;38546;48.170;11.724;2022-08-19T14:00:43;23.10;99.90
3488;DHT22;38546;48.170;11.724;2022-08-19T14:03:35;22.90;99.90
3488;DHT22;38546;48.170;11.724;2022-08-19T14:06:24;22.70;99.90
3488;DHT22;38546;48.170;11.724;2022-08-19T14:09:14;22.70;99.90
3488;DHT22;38546;48.170;11.724;2022-08-19T14:12:04;22.70;99.90
3488;DHT22;38546;48.170;11.724;2022-08-19T14:14:53;22.60;99.90
3488;DHT22;38546;48.170;11.724;2022-08-19T14:17:44;22.40;99.90
3488;DHT22;38546;48.170;11.724;2022-08-19T14:20:37;22.30;99.90
3488;DHT22;38546;48.170;11.724;2022-08-19T14:23:27;22.20;99.90
3488;DHT22;38546;48.170;11.724;2022-08-19T14:26:18;22.20;99.90
3488;DHT22;38546;48.170;11.724;2022-08-19T14:29:08;22.20;99.90
3488;DHT22;38546;48.170;11.724;2022-08-19T14:31:58;22.40;99.90
3488;DHT22;38546;48.170;11.724;2022-08-19T14:34:48;22.60;99.90
3488;DHT22;38546;48.170;11.724;2022-08-19T14:37:37;22.60;99.90
3488;DHT22;38546;48.170;11.724;2022-08-19T14:40:28;22.50;99.90
3488;DHT22;38546;48.170;11.724;2022-08-19T14:43:19;22.60;99.90
3488;DHT22;38546;48.170;11.724;2022-08-19T14:46:09;22.70;99.90
3488;DHT22;38546;48.170;11.724;2022-08-19T14:49:01;22.80;99.90
3488;DHT22;38546;48.170;11.724;2022-08-19T14:51:51;22.70;99.90
3488;DHT22;38546;48.170;11.724;2022-08-19T14:54:41;22.70;99.90
3488;DHT22;38546;48.170;11.724;2022-08-19T14:57:31;22.60;99.90
3488;DHT22;38546;48.170;11.724;2022-08-19T15:00:22;22.80;99.90
3488;DHT22;38546;48.170;11.724;2022-08-19T15:03:12;22.90;99.90
3488;DHT22;38546;48.170;11.724;2022-08-19T15:06:04;22.90;99.90
3488;DHT22;38546;48.170;11.724;2022-08-19T15:08:54;23.10;99.90
3488;DHT22;38546;48.170;11.724;2022-08-19T15:11:43;22.70;99.90
3488;DHT22;38546;48.170;11.724;2022-08-19T15:14:36;22.80;99.90
3488;DHT22;38546;48.170;11.724;2022-08-19T15:17:26;22.80;99.90
3488;DHT22;38546;48.170;11.724;2022-08-19T15:20:18;22.70;99.90
3488;DHT22;38546;48.170;11.724;2022-08-19T15:23:08;22.90;99.90
3488;DHT22;38546;48.170;11.724;2022-08-19T15:25:58;22.60;99.90
3488;DHT22;38546;48.170;11.724;2022-08-19T15:28:47;22.70;99.90
3488;DHT22;38546;48.170;11.724;2022-08-19T15:31:37;22.60;99.90
3488;DHT22;38546;48.170;11.724;2022-08-19T15:34:27;22.70;99.90
3488;DHT22;38546;48.170;11.724;2022-08-19T15:37:17;22.50;99.90
3488;DHT22;38546;48.170;11.724;2022-08-19T15:40:08;22.40;99.90
3488;DHT22;38546;48.170;11.724;2022-08-19T15:42:58;22.50;99.90
3488;DHT22;38546;48.170;11.724;2022-08-19T15:45:47;22.50;99.90
3488;DHT22;38546;48.170;11.724;2022-08-19T15:48:37;22.50;99.90
3488;DHT22;38546;48.170;11.724;2022-08-19T15:51:32;22.40;99.90
3488;DHT22;38546;48.170;11.724;2022-08-19T15:54:23;22.10;99.90
3488;DHT22;38546;48.170;11.724;2022-08-19T15:57:12;22.20;99.90
3488;DHT22;38546;48.170;11.724;2022-08-19T16:00:10;22.00;99.90
3488;DHT22;38546;48.170;11.724;2022-08-19T16:03:18;22.00;99.90
3488;DHT22;38546;48.170;11.724;2022-08-19T16:06:25;21.90;99.90
3488;DHT22;38546;48.170;11.724;2022-08-19T16:09:15;21.80;99.90
3488;DHT22;38546;48.170;11.724;2022-08-19T16:12:05;21.80;99.90
3488;DHT22;38546;48.170;11.724;2022-08-19T16:14:57;21.70;99.90
3488;DHT22;38546;48.170;11.724;2022-08-19T16:17:46;21.70;99.90
3488;DHT22;38546;48.170;11.724;2022-08-19T16:20:36;21.70;99.90
3488;DHT22;38546;48.170;11.724;2022-08-19T16:23:25;21.70;99.90
3488;DHT22;38546;48.170;11.724;2022-08-19T16:26:17;21.80;99.90
3488;DHT22;38546;48.170;11.724;2022-08-19T16:29:08;21.90;99.90
3488;DHT22;38546;48.170;11.724;2022-08-19T16:31:57;22.00;99.90
3488;DHT22;38546;48.170;11.724;2022-08-19T16:34:47;21.80;99.90
3488;DHT22;38546;48.170;11.724;2022-08-19T16:37:36;21.80;99.90
3488;DHT22;38546;48.170;11.724;2022-08-19T16:40:26;21.70;99.90
3488;DHT22;38546;48.170;11.724;2022-08-19T16:43:15;21.80;99.90
3488;DHT22;38546;48.170;11.724;2022-08-19T16:46:05;21.80;99.90
3488;DHT22;38546;48.170;11.724;2022-08-19T16:48:55;21.80;99.90
3488;DHT22;38546;48.170;11.724;2022-08-19T16:51:44;21.70;99.90
3488;DHT22;38546;48.170;11.724;2022-08-19T16:54:35;21.70;99.90
3488;DHT22;38546;48.170;11.724;2022-08-19T16:57:25;21.60;99.90
3488;DHT22;38546;48.170;11.724;2022-08-19T17:00:14;21.50;99.90
3488;DHT22;38546;48.170;11.724;2022-08-19T17:03:06;21.40;99.90
3488;DHT22;38546;48.170;11.724;2022-08-19T17:05:58;21.30;99.90
3488;DHT22;38546;48.170;11.724;2022-08-19T17:08:54;21.20;99.90
3488;DHT22;38546;48.170;11.724;2022-08-19T17:11:48;21.30;99.90
3488;DHT22;38546;48.170;11.724;2022-08-19T17:14:37;21.10;99.90
3488;DHT22;38546;48.170;11.724;2022-08-19T17:17:27;21.30;99.90
3488;DHT22;38546;48.170;11.724;2022-08-19T17:20:17;21.10;99.90
3488;DHT22;38546;48.170;11.724;2022-08-19T17:23:08;21.20;99.90
3488;DHT22;38546;48.170;11.724;2022-08-19T17:25:57;21.20;99.90
3488;DHT22;38546;48.170;11.724;2022-08-19T17:28:48;21.20;99.90
3488;DHT22;38546;48.170;11.724;2022-08-19T17:31:38;21.10;99.90
3488;DHT22;38546;48.170;11.724;2022-08-19T17:34:27;21.00;99.90
3488;DHT22;38546;48.170;11.724;2022-08-19T17:37:17;21.10;99.90
3488;DHT22;38546;48.170;11.724;2022-08-19T17:40:07;20.90;99.90
3488;DHT22;38546;48.170;11.724;2022-08-19T17:42:57;20.80;99.90
3488;DHT22;38546;48.170;11.724;2022-08-19T17:45:46;20.80;99.90
3488;DHT22;38546;48.170;11.724;2022-08-19T17:48:35;20.70;99.90
3488;DHT22;38546;48.170;11.724;2022-08-19T17:51:42;20.70;99.90
3488;DHT22;38546;48.170;11.724;2022-08-19T17:54:33;20.70;99.90
3488;DHT22;38546;48.170;11.724;2022-08-19T17:57:22;20.60;99.90
3488;DHT22;38546;48.170;11.724;2022-08-19T18:00:12;20.70;99.90
3488;DHT22;38546;48.170;11.724;2022-08-19T18:03:05;20.70;99.90
3488;DHT22;38546;48.170;11.724;2022-08-19T18:05:55;20.50;99.90
3488;DHT22;38546;48.170;11.724;2022-08-19T18:08:45;20.50;99.90
3488;DHT22;38546;48.170;11.724;2022-08-19T18:11:36;20.30;99.90
3488;DHT22;38546;48.170;11.724;2022-08-19T18:14:29;20.30;99.90